Time;durP1;ratioP1;P1;durP2;ratioP2;P2;SDS_P1;SDS_P2;PMS_P1;PMS_P2;Temp;Humidity;BMP_temperature;BMP_pressure;BME280_temperature;BME280_humidity;BME280_pressure;Samples;Min_cycle;Max_cycle;Signal;HPM_P1;HPM_P2
2022/04/24 00:01:49;;;;;;;32.63;17.73;;;;;;;;;;8302766;28;20049;-81
2022/04/24 00:05:53;;;;;;;35.33;16.10;;;;;;;;;;8302397;28;20482;-81
2022/04/24 00:09:56;;;;;;;26.75;14.80;;;;;;;;;;8302840;28;20072;-81
2022/04/24 00:13:58;;;;;;;31.30;16.40;;;;;;;;;;8302312;28;20054;-82
2022/04/24 00:18:01;;;;;;;29.70;14.95;;;;;;;;;;8302368;28;20057;-82
2022/04/24 00:22:06;;;;;;;28.45;15.35;;;;;;;;;;8302297;28;20053;-80
2022/04/24 00:26:08;;;;;;;31.40;15.60;;;;;;;;;;8302021;28;20046;-80
2022/04/24 00:30:12;;;;;;;30.98;15.90;;;;;;;;;;8302389;28;20068;-81
2022/04/24 00:34:14;;;;;;;24.48;14.85;;;;;;;;;;8301872;28;20050;-81
2022/04/24 00:38:18;;;;;;;27.48;14.77;;;;;;;;;;8301597;28;20493;-81
2022/04/24 00:42:21;;;;;;;24.80;13.13;;;;;;;;;;8301493;28;20129;-81
2022/04/24 00:46:39;;;;;;;26.65;13.55;;;;;;;;;;8301317;28;20050;-81
2022/04/24 00:50:43;;;;;;;25.88;13.95;;;;;;;;;;8302728;28;20052;-82
2022/04/24 00:54:47;;;;;;;27.20;13.57;;;;;;;;;;8313587;28;20140;-81
2022/04/24 00:58:50;;;;;;;27.42;13.90;;;;;;;;;;8308727;28;20398;-82
2022/04/24 01:02:53;;;;;;;31.33;12.27;;;;;;;;;;8310530;28;20030;-82
2022/04/24 01:06:56;;;;;;;27.65;14.05;;;;;;;;;;8312920;28;20073;-80
2022/04/24 01:11:00;;;;;;;28.83;13.98;;;;;;;;;;8300758;28;20050;-81
2022/04/24 01:15:02;;;;;;;26.75;14.70;;;;;;;;;;8300663;28;20061;-82
2022/04/24 01:19:05;;;;;;;29.80;14.82;;;;;;;;;;8300970;28;20504;-81
2022/04/24 01:23:09;;;;;;;27.33;13.95;;;;;;;;;;8300582;28;20132;-81
2022/04/24 01:27:12;;;;;;;33.58;18.40;;;;;;;;;;8298270;28;20494;-81
2022/04/24 01:31:14;;;;;;;39.40;18.80;;;;;;;;;;8291065;28;20154;-81
2022/04/24 01:35:20;;;;;;;33.35;14.82;;;;;;;;;;8267476;28;20046;-82
2022/04/24 01:39:24;;;;;;;31.23;15.02;;;;;;;;;;8267277;28;20061;-81
2022/04/24 01:43:27;;;;;;;32.95;15.95;;;;;;;;;;8267639;28;20053;-81
2022/04/24 01:47:29;;;;;;;29.60;14.43;;;;;;;;;;8291946;28;20046;-82
2022/04/24 01:51:32;;;;;;;35.15;15.68;;;;;;;;;;8298643;28;20050;-80
2022/04/24 01:55:35;;;;;;;30.52;16.25;;;;;;;;;;8293594;28;20100;-81
2022/04/24 01:59:38;;;;;;;36.50;17.67;;;;;;;;;;8294701;28;20046;-80
2022/04/24 02:03:41;;;;;;;33.72;17.70;;;;;;;;;;8295649;28;20504;-82
2022/04/24 02:07:43;;;;;;;33.13;16.25;;;;;;;;;;8296696;28;20469;-81
2022/04/24 02:11:47;;;;;;;41.90;19.05;;;;;;;;;;8296401;28;20068;-81
2022/04/24 02:15:50;;;;;;;33.75;17.20;;;;;;;;;;8293697;28;20044;-82
2022/04/24 02:19:53;;;;;;;33.05;16.60;;;;;;;;;;8295729;28;20057;-82
2022/04/24 02:23:55;;;;;;;41.13;18.80;;;;;;;;;;8297490;28;20053;-82
2022/04/24 02:27:59;;;;;;;37.00;17.30;;;;;;;;;;8297102;28;20455;-81
2022/04/24 02:32:02;;;;;;;33.67;16.05;;;;;;;;;;8295669;28;20054;-81
2022/04/24 02:36:05;;;;;;;34.45;17.25;;;;;;;;;;8286396;28;20074;-83
2022/04/24 02:40:10;;;;;;;34.58;16.33;;;;;;;;;;8265790;28;20042;-81
2022/04/24 02:44:13;;;;;;;35.67;16.80;;;;;;;;;;8265641;28;20054;-82
2022/04/24 02:48:16;;;;;;;32.85;17.38;;;;;;;;;;8265654;28;20050;-80
2022/04/24 02:52:18;;;;;;;49.30;25.88;;;;;;;;;;8267877;28;20046;-82
2022/04/24 02:56:21;;;;;;;41.00;19.67;;;;;;;;;;8298509;28;20495;-82
2022/04/24 03:00:39;;;;;;;43.95;21.17;;;;;;;;;;8298543;28;20050;-81
2022/04/24 03:04:41;;;;;;;37.97;19.38;;;;;;;;;;8297681;28;20046;-82
2022/04/24 03:08:44;;;;;;;121.65;45.28;;;;;;;;;;8297566;28;20050;-81
2022/04/24 03:12:47;;;;;;;42.25;21.90;;;;;;;;;;8297777;28;20053;-81
2022/04/24 03:16:51;;;;;;;53.75;28.05;;;;;;;;;;8297621;28;20072;-82
2022/04/24 03:20:54;;;;;;;42.03;22.17;;;;;;;;;;8297636;28;20050;-81
2022/04/24 03:24:56;;;;;;;46.97;23.50;;;;;;;;;;8297872;28;20097;-79
2022/04/24 03:28:59;;;;;;;40.75;20.58;;;;;;;;;;8300651;28;20050;-82
2022/04/24 03:33:03;;;;;;;35.50;18.33;;;;;;;;;;8303711;28;20141;-82
2022/04/24 03:37:06;;;;;;;38.95;19.58;;;;;;;;;;8304007;28;20056;-81
2022/04/24 03:41:09;;;;;;;40.00;17.73;;;;;;;;;;8304113;28;20046;-81
2022/04/24 03:45:12;;;;;;;44.97;18.55;;;;;;;;;;8303603;28;20050;-81
2022/04/24 03:49:16;;;;;;;36.67;19.00;;;;;;;;;;8303394;28;20651;-82
2022/04/24 03:53:19;;;;;;;36.10;18.10;;;;;;;;;;8302987;28;20053;-82
2022/04/24 03:57:21;;;;;;;35.97;17.92;;;;;;;;;;8302546;28;20052;-80
2022/04/24 04:01:24;;;;;;;43.28;20.73;;;;;;;;;;8303206;28;20056;-82
2022/04/24 04:05:28;;;;;;;38.20;18.75;;;;;;;;;;8303076;28;20123;-82
2022/04/24 04:09:30;;;;;;;47.22;22.58;;;;;;;;;;8302422;28;20054;-81
2022/04/24 04:13:33;;;;;;;36.83;17.75;;;;;;;;;;8302997;28;20508;-81
2022/04/24 04:17:35;;;;;;;38.97;19.60;;;;;;;;;;8302616;28;20050;-81
2022/04/24 04:21:39;;;;;;;42.95;23.05;;;;;;;;;;8302532;28;20046;-82
2022/04/24 04:25:42;;;;;;;54.60;25.80;;;;;;;;;;8302548;28;20437;-82
2022/04/24 04:29:44;;;;;;;47.70;24.05;;;;;;;;;;8302435;28;20073;-81
2022/04/24 04:33:47;;;;;;;47.67;21.83;;;;;;;;;;8302275;28;20103;-82
2022/04/24 04:37:51;;;;;;;43.30;22.00;;;;;;;;;;8301675;28;20050;-82
2022/04/24 04:41:54;;;;;;;50.13;24.30;;;;;;;;;;8300378;28;20046;-83
2022/04/24 04:45:56;;;;;;;54.30;26.00;;;;;;;;;;8301824;28;20045;-82
2022/04/24 04:49:59;;;;;;;76.43;35.03;;;;;;;;;;8301534;28;20134;-80
2022/04/24 04:54:03;;;;;;;65.97;30.55;;;;;;;;;;8301389;28;20042;-81
2022/04/24 04:58:06;;;;;;;72.90;35.33;;;;;;;;;;8301664;28;20123;-82
2022/04/24 05:02:08;;;;;;;64.35;32.13;;;;;;;;;;8301071;28;20412;-81
2022/04/24 05:06:13;;;;;;;47.13;27.30;;;;;;;;;;8250106;28;20520;-83
2022/04/24 05:10:19;;;;;;;36.70;22.27;;;;;;;;;;8300312;28;20100;-82
2022/04/24 05:14:24;;;;;;;34.38;23.27;;;;;;;;;;8300811;28;20129;-81
2022/04/24 05:18:31;;;;;;;31.33;19.58;;;;;;;;;;8297739;28;20073;-81
2022/04/24 05:22:38;;;;;;;35.65;22.52;;;;;;;;;;8299816;28;20045;-83
2022/04/24 05:26:52;;;;;;;26.60;18.33;;;;;;;;;;8293761;28;20045;-83
2022/04/24 05:31:10;;;;;;;28.23;17.88;;;;;;;;;;8299148;28;20061;-81
2022/04/24 05:35:19;;;;;;;25.95;18.40;;;;;;;;;;8299910;28;20044;-80
2022/04/24 05:39:25;;;;;;;23.67;16.50;;;;;;;;;;8298239;28;20088;-82
2022/04/24 05:43:34;;;;;;;28.10;17.83;;;;;;;;;;8300527;28;20129;-83
2022/04/24 05:47:39;;;;;;;31.35;18.98;;;;;;;;;;8299352;28;20387;-82
2022/04/24 05:51:45;;;;;;;31.33;20.00;;;;;;;;;;8299820;28;20073;-82
2022/04/24 05:55:49;;;;;;;24.83;16.83;;;;;;;;;;8299532;28;20046;-82
2022/04/24 05:59:53;;;;;;;26.13;17.27;;;;;;;;;;8299706;28;20045;-81
2022/04/24 06:03:56;;;;;;;23.08;15.20;;;;;;;;;;8299208;28;20057;-79
2022/04/24 06:08:04;;;;;;;27.27;16.25;;;;;;;;;;8298814;28;20046;-81
2022/04/24 06:12:12;;;;;;;27.80;19.73;;;;;;;;;;8298836;28;20057;-79
2022/04/24 06:16:23;;;;;;;26.52;18.70;;;;;;;;;;8286578;28;20499;-79
2022/04/24 06:20:34;;;;;;;24.92;17.70;;;;;;;;;;8264441;28;20050;-80
2022/04/24 06:24:40;;;;;;;19.02;14.77;;;;;;;;;;8266553;28;20050;-80
2022/04/24 06:28:56;;;;;;;15.63;12.25;;;;;;;;;;8264771;28;20454;-80
2022/04/24 06:33:10;;;;;;;14.45;10.73;;;;;;;;;;8266108;28;20470;-80
2022/04/24 06:37:21;;;;;;;12.60;9.70;;;;;;;;;;8265438;28;20470;-80
2022/04/24 06:41:27;;;;;;;11.00;8.30;;;;;;;;;;8281279;28;20052;-81
2022/04/24 06:45:38;;;;;;;11.25;8.40;;;;;;;;;;8288891;28;20081;-81
2022/04/24 06:49:49;;;;;;;9.90;8.00;;;;;;;;;;8293365;28;20466;-81
2022/04/24 06:53:58;;;;;;;8.93;7.22;;;;;;;;;;8293638;28;20076;-82
2022/04/24 06:58:25;;;;;;;12.68;6.63;;;;;;;;;;8293003;28;20148;-80
2022/04/24 07:02:53;;;;;;;8.73;6.15;;;;;;;;;;8291518;28;20078;-80
2022/04/24 07:07:10;;;;;;;17.63;11.93;;;;;;;;;;8300116;28;20054;-81
2022/04/24 07:11:22;;;;;;;9.82;7.22;;;;;;;;;;8297504;28;20145;-81
2022/04/24 07:15:35;;;;;;;7.57;5.97;;;;;;;;;;8266985;28;20054;-81
2022/04/24 07:19:49;;;;;;;5.82;4.55;;;;;;;;;;8299123;28;20461;-81
2022/04/24 07:24:03;;;;;;;9.45;4.50;;;;;;;;;;8299302;28;20050;-81
2022/04/24 07:28:32;;;;;;;10.52;4.60;;;;;;;;;;8299441;28;20500;-82
2022/04/24 07:32:47;;;;;;;6.57;4.55;;;;;;;;;;8299181;28;20050;-81
2022/04/24 07:37:01;;;;;;;6.85;4.30;;;;;;;;;;8299166;28;20091;-81
2022/04/24 07:41:20;;;;;;;;;;;;;;;;;;8299170;28;20140;-81
2022/04/24 07:51:02;;;;;;;8.77;4.77;;;;;;;;;;8286425;28;20516;-80
2022/04/24 07:55:19;;;;;;;7.80;4.43;;;;;;;;;;8297814;28;20057;-80
2022/04/24 07:59:43;;;;;;;6.68;4.35;;;;;;;;;;8297408;28;20058;-79
2022/04/24 08:03:58;;;;;;;6.50;4.38;;;;;;;;;;8298129;28;20053;-80
2022/04/24 08:08:15;;;;;;;6.60;4.40;;;;;;;;;;8298196;28;20600;-80
2022/04/24 08:12:22;;;;;;;7.18;5.22;;;;;;;;;;8297127;28;20061;-80
2022/04/24 08:16:37;;;;;;;6.65;4.50;;;;;;;;;;8297338;28;20429;-80
2022/04/24 08:20:54;;;;;;;6.45;4.20;;;;;;;;;;8297537;28;20496;-80
2022/04/24 08:25:10;;;;;;;5.35;4.18;;;;;;;;;;8297304;28;20049;-79
2022/04/24 08:29:18;;;;;;;5.47;4.20;;;;;;;;;;8297630;28;20482;-80
2022/04/24 08:33:45;;;;;;;7.15;4.45;;;;;;;;;;8297295;28;20132;-80
2022/04/24 08:38:00;;;;;;;5.97;4.50;;;;;;;;;;8296919;28;20092;-80
2022/04/24 08:42:23;;;;;;;5.70;4.18;;;;;;;;;;8297186;28;20064;-80
2022/04/24 08:46:34;;;;;;;5.25;3.55;;;;;;;;;;8296797;28;20081;-80
2022/04/24 08:50:53;;;;;;;4.53;3.20;;;;;;;;;;8296836;28;20061;-79
2022/04/24 08:55:05;;;;;;;4.38;3.28;;;;;;;;;;8296198;28;20064;-80
2022/04/24 08:59:13;;;;;;;5.10;3.47;;;;;;;;;;8296177;28;20153;-78
2022/04/24 09:03:17;;;;;;;5.78;4.03;;;;;;;;;;8290265;28;20050;-78
2022/04/24 09:07:24;;;;;;;5.70;3.80;;;;;;;;;;8294591;28;20041;-79
2022/04/24 09:11:28;;;;;;;4.57;3.47;;;;;;;;;;8285870;28;20484;-80
2022/04/24 09:15:37;;;;;;;6.43;3.90;;;;;;;;;;8291756;28;20414;-80
2022/04/24 09:19:41;;;;;;;6.03;3.92;;;;;;;;;;8293170;28;20381;-80
2022/04/24 09:23:46;;;;;;;9.25;3.83;;;;;;;;;;8294210;28;20100;-80
2022/04/24 09:27:55;;;;;;;4.70;3.38;;;;;;;;;;8264195;28;20046;-78
2022/04/24 09:31:58;;;;;;;4.75;3.50;;;;;;;;;;8272500;28;20054;-78
2022/04/24 09:36:01;;;;;;;4.90;3.58;;;;;;;;;;8285673;28;20072;-78
2022/04/24 09:40:08;;;;;;;5.78;4.13;;;;;;;;;;8279597;28;20053;-78
2022/04/24 09:44:17;;;;;;;6.60;4.10;;;;;;;;;;8270344;28;20134;-80
2022/04/24 09:48:22;;;;;;;5.43;3.97;;;;;;;;;;8283169;28;20111;-79
2022/04/24 09:52:25;;;;;;;8.20;5.10;;;;;;;;;;8283098;28;20052;-79
2022/04/24 09:56:31;;;;;;;8.20;4.88;;;;;;;;;;8271665;28;20062;-79
2022/04/24 10:00:35;;;;;;;5.80;4.40;;;;;;;;;;8261375;28;20061;-78
2022/04/24 10:04:40;;;;;;;5.72;4.03;;;;;;;;;;8261609;28;20046;-79
2022/04/24 10:08:44;;;;;;;6.40;4.18;;;;;;;;;;8261836;28;20097;-78
2022/04/24 10:12:50;;;;;;;6.57;4.38;;;;;;;;;;8261979;28;20069;-79
2022/04/24 10:17:23;;;;;;;8.68;4.60;;;;;;;;;;8261576;28;20047;-80
2022/04/24 10:21:53;;;;;;;7.80;4.40;;;;;;;;;;8261750;28;20054;-79
2022/04/24 10:25:56;;;;;;;4.68;3.55;;;;;;;;;;8261450;28;20054;-79
2022/04/24 10:30:02;;;;;;;5.50;3.85;;;;;;;;;;8261516;28;20054;-79
2022/04/24 10:34:08;;;;;;;6.32;3.92;;;;;;;;;;8261224;28;20049;-78
2022/04/24 10:38:13;;;;;;;6.13;3.88;;;;;;;;;;8260964;28;20453;-79
2022/04/24 10:42:16;;;;;;;5.22;3.88;;;;;;;;;;8264280;28;20053;-80
2022/04/24 10:46:31;;;;;;;5.10;3.58;;;;;;;;;;8264170;28;20054;-78
2022/04/24 10:50:35;;;;;;;5.70;3.92;;;;;;;;;;8264161;28;20046;-79
2022/04/24 10:54:39;;;;;;;5.00;3.35;;;;;;;;;;8264295;28;20058;-79
2022/04/24 10:58:42;;;;;;;6.28;3.58;;;;;;;;;;8264275;28;20043;-79
2022/04/24 11:02:48;;;;;;;6.97;3.97;;;;;;;;;;8284503;28;20128;-79
2022/04/24 11:06:55;;;;;;;6.45;3.88;;;;;;;;;;8298382;28;20107;-79
2022/04/24 11:11:06;;;;;;;4.60;3.63;;;;;;;;;;8297351;28;20108;-79
2022/04/24 11:15:11;;;;;;;6.57;4.10;;;;;;;;;;8297672;28;20073;-79
2022/04/24 11:19:23;;;;;;;5.13;3.58;;;;;;;;;;8297674;28;20054;-79
2022/04/24 11:23:28;;;;;;;5.10;3.83;;;;;;;;;;8297607;28;20050;-80
2022/04/24 11:27:31;;;;;;;5.90;3.90;;;;;;;;;;8297404;28;20057;-80
2022/04/24 11:31:34;;;;;;;5.18;3.72;;;;;;;;;;8297336;28;20046;-78
2022/04/24 11:35:41;;;;;;;7.57;4.25;;;;;;;;;;8297408;28;20056;-79
2022/04/24 11:39:44;;;;;;;6.70;4.40;;;;;;;;;;8297295;28;20046;-78
2022/04/24 11:43:48;;;;;;;6.85;4.00;;;;;;;;;;8297286;28;20125;-78
2022/04/24 11:52:20;;;;;;;6.10;4.72;;;;;;;;;;8303074;28;20064;-80
2022/04/24 11:56:24;;;;;;;6.45;5.00;;;;;;;;;;8303081;28;20056;-78
2022/04/24 12:00:35;;;;;;;7.43;4.30;;;;;;;;;;8302927;28;20608;-79
2022/04/24 12:04:40;;;;;;;6.50;4.70;;;;;;;;;;8302948;28;20038;-78
2022/04/24 12:08:49;;;;;;;5.32;3.70;;;;;;;;;;8303088;28;20069;-79
2022/04/24 12:12:54;;;;;;;5.10;3.63;;;;;;;;;;8293927;28;20042;-80
2022/04/24 12:17:24;;;;;;;5.60;4.20;;;;;;;;;;8267674;28;20058;-80
2022/04/24 12:21:50;;;;;;;7.25;4.05;;;;;;;;;;8265152;28;20057;-80
2022/04/24 12:26:02;;;;;;;5.95;4.13;;;;;;;;;;8265003;28;20054;-80
2022/04/24 12:30:11;;;;;;;7.03;4.43;;;;;;;;;;8265260;28;20823;-80
2022/04/24 12:34:21;;;;;;;4.93;3.83;;;;;;;;;;8264869;28;20050;-80
2022/04/24 12:38:27;;;;;;;5.70;4.05;;;;;;;;;;8264666;28;20422;-79
2022/04/24 12:42:41;;;;;;;5.80;4.45;;;;;;;;;;8264398;28;20053;-79
2022/04/24 12:46:47;;;;;;;6.40;3.88;;;;;;;;;;8264545;28;20052;-79
2022/04/24 12:50:51;;;;;;;7.50;4.40;;;;;;;;;;8264015;28;20524;-80
2022/04/24 12:55:03;;;;;;;5.95;4.20;;;;;;;;;;8281642;28;20481;-80
2022/04/24 12:59:09;;;;;;;7.20;4.30;;;;;;;;;;8268964;28;20095;-79
2022/04/24 13:03:13;;;;;;;6.80;4.50;;;;;;;;;;8295351;28;20050;-78
2022/04/24 13:07:17;;;;;;;5.82;3.83;;;;;;;;;;8290503;28;20057;-79
2022/04/24 13:11:23;;;;;;;6.28;4.28;;;;;;;;;;8295652;28;20113;-77
2022/04/24 13:15:30;;;;;;;6.85;4.28;;;;;;;;;;8296063;28;20053;-78
2022/04/24 13:19:33;;;;;;;6.70;4.30;;;;;;;;;;8295992;28;20402;-79
2022/04/24 13:23:38;;;;;;;5.82;4.25;;;;;;;;;;8295690;28;20552;-81
2022/04/24 13:27:42;;;;;;;6.93;4.65;;;;;;;;;;8283187;28;20046;-82
2022/04/24 13:31:48;;;;;;;6.53;4.28;;;;;;;;;;8291116;28;20054;-81
2022/04/24 13:35:55;;;;;;;7.45;4.80;;;;;;;;;;8281866;28;20041;-81
2022/04/24 13:40:01;;;;;;;6.95;4.90;;;;;;;;;;8289703;28;20050;-80
2022/04/24 13:44:05;;;;;;;7.28;5.65;;;;;;;;;;8285127;28;20165;-81
2022/04/24 13:48:12;;;;;;;7.35;4.75;;;;;;;;;;8295907;28;20508;-82
2022/04/24 13:52:15;;;;;;;14.02;6.40;;;;;;;;;;8292979;28;20046;-81
2022/04/24 13:56:19;;;;;;;8.05;5.55;;;;;;;;;;8293221;28;20042;-81
2022/04/24 14:00:23;;;;;;;7.78;5.65;;;;;;;;;;8290101;28;20129;-81
2022/04/24 14:04:30;;;;;;;10.30;6.25;;;;;;;;;;8292294;28;20529;-81
2022/04/24 14:08:33;;;;;;;7.43;5.45;;;;;;;;;;8293256;28;20050;-84
2022/04/24 14:12:37;;;;;;;9.52;5.50;;;;;;;;;;8287855;28;20057;-84
2022/04/24 14:16:40;;;;;;;8.95;6.03;;;;;;;;;;8284252;28;20042;-84
2022/04/24 14:20:46;;;;;;;10.05;5.75;;;;;;;;;;8291088;28;20075;-84
2022/04/24 14:24:50;;;;;;;9.68;5.75;;;;;;;;;;8284685;28;20092;-83
2022/04/24 14:28:53;;;;;;;8.93;6.07;;;;;;;;;;8292740;28;20049;-84
2022/04/24 14:32:58;;;;;;;16.73;11.57;;;;;;;;;;8275017;28;20098;-84
2022/04/24 14:37:12;;;;;;;80.38;50.92;;;;;;;;;;8282359;28;20124;-85
2022/04/24 14:41:16;;;;;;;10.27;6.13;;;;;;;;;;8287392;28;20050;-84
2022/04/24 14:55:44;;;;;;;8.07;5.47;;;;;;;;;;8287895;28;20088;-85
2022/04/24 14:58:37;;;;;;;8.93;5.90;;;;;;;;;;8285879;28;20119;-83
2022/04/24 15:02:42;;;;;;;15.10;10.52;;;;;;;;;;8289524;28;20073;-83
2022/04/24 15:06:45;;;;;;;13.20;7.55;;;;;;;;;;8278814;28;20046;-84
2022/04/24 15:10:51;;;;;;;10.98;7.25;;;;;;;;;;8286113;28;20523;-84
2022/04/24 15:14:54;;;;;;;13.60;7.82;;;;;;;;;;8286793;28;20046;-83
2022/04/24 15:18:57;;;;;;;11.93;6.90;;;;;;;;;;8289622;28;20498;-84
2022/04/24 15:23:02;;;;;;;10.73;7.90;;;;;;;;;;8284502;28;20482;-83
2022/04/24 15:27:08;;;;;;;10.75;7.55;;;;;;;;;;8298796;28;20061;-82
2022/04/24 15:31:10;;;;;;;14.50;9.25;;;;;;;;;;8299418;28;20060;-85
2022/04/24 15:35:14;;;;;;;12.90;8.27;;;;;;;;;;8292702;28;20058;-83
2022/04/24 15:39:17;;;;;;;11.77;8.00;;;;;;;;;;8297998;28;20065;-83
2022/04/24 15:43:22;;;;;;;10.57;7.55;;;;;;;;;;8292695;28;20050;-82
2022/04/24 15:47:24;;;;;;;11.65;7.82;;;;;;;;;;8293182;28;20168;-82
2022/04/24 15:51:28;;;;;;;13.63;8.45;;;;;;;;;;8286065;28;20073;-83
2022/04/24 15:55:33;;;;;;;10.93;7.43;;;;;;;;;;8295723;28;20050;-82
2022/04/24 15:59:38;;;;;;;30.90;14.25;;;;;;;;;;8288084;28;20200;-82
2022/04/24 16:03:41;;;;;;;21.38;10.48;;;;;;;;;;8290985;28;20053;-82
2022/04/24 16:07:45;;;;;;;49.40;18.98;;;;;;;;;;8298136;28;20050;-82
2022/04/24 16:11:49;;;;;;;13.35;8.48;;;;;;;;;;8297856;28;20054;-82
2022/04/24 16:15:54;;;;;;;10.35;6.32;;;;;;;;;;8297978;28;20084;-85
2022/04/24 16:19:57;;;;;;;12.40;7.78;;;;;;;;;;8297546;28;20052;-85
2022/04/24 16:24:01;;;;;;;10.32;7.72;;;;;;;;;;8297746;28;20054;-85
2022/04/24 16:28:04;;;;;;;20.98;11.00;;;;;;;;;;8297609;28;20042;-82
2022/04/24 16:32:10;;;;;;;38.50;17.02;;;;;;;;;;8296664;28;20045;-86
2022/04/24 16:36:13;;;;;;;19.10;8.98;;;;;;;;;;8265522;28;20080;-88
2022/04/24 16:40:18;;;;;;;13.23;8.00;;;;;;;;;;8297193;28;20062;-87
2022/04/24 16:44:47;;;;;;;26.02;21.67;;;;;;;;;;8297146;28;20465;-83
2022/04/24 16:48:52;;;;;;;14.80;9.57;;;;;;;;;;8296695;28;20413;-87
2022/04/24 17:01:38;;;;;;;13.45;8.88;;;;;;;;;;8292909;28;20049;-87
2022/04/24 17:05:43;;;;;;;12.90;9.10;;;;;;;;;;8295531;28;20053;-86
2022/04/24 17:10:05;;;;;;;80.60;37.33;;;;;;;;;;8296267;28;20065;-89
2022/04/24 17:14:16;;;;;;;125.32;53.80;;;;;;;;;;8296831;28;20064;-87
2022/04/24 17:18:26;;;;;;;32.80;23.75;;;;;;;;;;8279631;28;20417;-89
2022/04/24 17:22:34;;;;;;;30.42;19.95;;;;;;;;;;8297006;28;20049;-88
2022/04/24 17:26:54;;;;;;;12.15;8.95;;;;;;;;;;8290030;28;20076;-83
2022/04/24 17:31:09;;;;;;;18.08;12.85;;;;;;;;;;8279866;28;20137;-89
2022/04/24 17:35:20;;;;;;;16.90;11.00;;;;;;;;;;8282929;28;20054;-88
2022/04/24 17:39:29;;;;;;;43.97;22.17;;;;;;;;;;8286890;28;20141;-89
2022/04/24 17:43:44;;;;;;;40.30;20.60;;;;;;;;;;8283265;28;20473;-86
2022/04/24 17:48:05;;;;;;;16.23;9.35;;;;;;;;;;8278468;28;20477;-87
2022/04/24 17:52:14;;;;;;;17.02;9.57;;;;;;;;;;8280392;28;20042;-87
2022/04/24 17:56:22;;;;;;;26.58;15.32;;;;;;;;;;8277623;28;20038;-85
2022/04/24 18:00:26;;;;;;;46.53;20.70;;;;;;;;;;8285307;28;20133;-86
2022/04/24 18:04:29;;;;;;;78.20;34.92;;;;;;;;;;8281164;28;20052;-85
2022/04/24 18:08:35;;;;;;;12.90;8.93;;;;;;;;;;8286033;28;20050;-87
2022/04/24 18:12:45;;;;;;;25.80;16.75;;;;;;;;;;8289335;28;20051;-85
2022/04/24 18:16:48;;;;;;;29.13;19.23;;;;;;;;;;8288115;28;20479;-85
2022/04/24 18:20:52;;;;;;;35.70;22.10;;;;;;;;;;8290184;28;20136;-87
2022/04/24 18:24:56;;;;;;;38.50;24.15;;;;;;;;;;8287051;28;20074;-83
2022/04/24 18:29:15;;;;;;;32.70;19.02;;;;;;;;;;8288641;28;20099;-88
2022/04/24 18:33:47;;;;;;;40.47;27.23;;;;;;;;;;8281314;28;20046;-88
2022/04/24 18:38:04;;;;;;;26.90;18.23;;;;;;;;;;8277066;28;20046;-87
2022/04/24 18:42:11;;;;;;;25.02;13.90;;;;;;;;;;8279647;28;20050;-87
2022/04/24 18:46:17;;;;;;;38.45;17.38;;;;;;;;;;8284659;28;20124;-86
2022/04/24 18:50:22;;;;;;;17.80;9.95;;;;;;;;;;8282762;28;20046;-88
2022/04/24 18:54:27;;;;;;;18.20;11.43;;;;;;;;;;8280461;28;20129;-88
2022/04/24 18:58:31;;;;;;;17.85;10.18;;;;;;;;;;8279268;28;20046;-88
2022/04/24 19:02:43;;;;;;;28.30;19.17;;;;;;;;;;8281589;28;20129;-87
2022/04/24 19:11:30;;;;;;;19.73;12.10;;;;;;;;;;8282959;28;20153;-84
2022/04/24 19:15:43;;;;;;;19.90;12.15;;;;;;;;;;8278977;28;20040;-87
2022/04/24 19:20:03;;;;;;;23.65;13.98;;;;;;;;;;8279894;28;20049;-85
2022/04/24 19:24:23;;;;;;;21.40;11.85;;;;;;;;;;8279758;28;20050;-86
2022/04/24 19:28:43;;;;;;;20.25;12.50;;;;;;;;;;8273715;28;20050;-85
2022/04/24 19:32:48;;;;;;;19.88;10.95;;;;;;;;;;8265119;28;20517;-86
2022/04/24 19:36:53;;;;;;;19.92;11.88;;;;;;;;;;8264956;28;20053;-86
2022/04/24 19:40:57;;;;;;;18.60;10.90;;;;;;;;;;8264651;28;20077;-85
2022/04/24 19:45:01;;;;;;;19.05;10.27;;;;;;;;;;8264793;28;20038;-87
2022/04/24 19:49:23;;;;;;;17.65;9.73;;;;;;;;;;8264800;28;20457;-87
2022/04/24 19:53:31;;;;;;;20.70;11.70;;;;;;;;;;8264706;28;20046;-83
2022/04/24 19:57:40;;;;;;;14.95;7.93;;;;;;;;;;8264892;28;20145;-90
2022/04/24 20:01:48;;;;;;;14.85;7.25;;;;;;;;;;8263299;28;20053;-86
2022/04/24 20:05:52;;;;;;;12.30;6.85;;;;;;;;;;8264543;28;20078;-87
2022/04/24 20:09:57;;;;;;;9.05;4.90;;;;;;;;;;8264934;28;20069;-85
2022/04/24 20:14:02;;;;;;;10.98;4.55;;;;;;;;;;8270235;28;20042;-84
2022/04/24 20:18:06;;;;;;;10.20;5.60;;;;;;;;;;8270088;28;20092;-84
2022/04/24 20:22:09;;;;;;;8.07;4.05;;;;;;;;;;8270007;28;20070;-85
2022/04/24 20:26:16;;;;;;;11.73;5.47;;;;;;;;;;8269799;28;20070;-83
2022/04/24 20:30:21;;;;;;;10.18;5.15;;;;;;;;;;8269787;28;20081;-84
2022/04/24 20:34:27;;;;;;;12.15;5.18;;;;;;;;;;8269638;28;20057;-83
2022/04/24 20:38:31;;;;;;;10.48;4.90;;;;;;;;;;8268612;28;20046;-84
2022/04/24 20:42:36;;;;;;;9.98;4.93;;;;;;;;;;8269379;28;20062;-85
2022/04/24 20:46:39;;;;;;;9.02;4.93;;;;;;;;;;8269389;28;20640;-85
2022/04/24 20:50:43;;;;;;;9.70;5.28;;;;;;;;;;8269113;28;20046;-84
2022/04/24 20:54:46;;;;;;;11.93;5.53;;;;;;;;;;8269097;28;20054;-86
2022/04/24 20:58:51;;;;;;;8.55;5.10;;;;;;;;;;8268795;28;20137;-84
2022/04/24 21:02:54;;;;;;;10.45;5.85;;;;;;;;;;8268847;28;20077;-83
2022/04/24 21:06:58;;;;;;;12.05;6.70;;;;;;;;;;8269171;28;20125;-85
2022/04/24 21:11:01;;;;;;;13.55;6.18;;;;;;;;;;8268509;28;20465;-84
2022/04/24 21:15:06;;;;;;;12.48;6.70;;;;;;;;;;8293131;28;20053;-84
2022/04/24 21:19:10;;;;;;;14.57;6.25;;;;;;;;;;8298733;28;20046;-85
2022/04/24 21:23:17;;;;;;;13.60;6.28;;;;;;;;;;8297850;28;20042;-85
2022/04/24 21:27:19;;;;;;;12.30;6.55;;;;;;;;;;8298757;28;20482;-84
2022/04/24 21:31:24;;;;;;;13.65;7.13;;;;;;;;;;8299681;28;20414;-84
2022/04/24 21:35:26;;;;;;;15.00;9.18;;;;;;;;;;8300190;28;20046;-82
2022/04/24 21:39:29;;;;;;;18.83;8.82;;;;;;;;;;8300034;28;20041;-84
2022/04/24 21:43:32;;;;;;;20.63;10.18;;;;;;;;;;8300269;28;20149;-83
2022/04/24 21:47:38;;;;;;;17.10;9.20;;;;;;;;;;8299919;28;20387;-85
2022/04/24 21:52:14;;;;;;;19.50;9.93;;;;;;;;;;8299069;28;20080;-83
2022/04/24 21:56:18;;;;;;;21.80;10.68;;;;;;;;;;8284710;28;20046;-85
2022/04/24 22:00:41;;;;;;;23.58;12.05;;;;;;;;;;8276092;28;20497;-85
2022/04/24 22:04:50;;;;;;;21.88;10.10;;;;;;;;;;8297200;28;20053;-82
2022/04/24 22:09:11;;;;;;;25.05;11.93;;;;;;;;;;8297873;28;20129;-83
2022/04/24 22:14:16;;;;;;;29.13;14.98;;;;;;;;;;8230338;28;20450;-85
2022/04/24 22:19:03;;;;;;;19.77;10.48;;;;;;;;;;8231067;28;20050;-85
2022/04/24 22:27:44;;;;;;;23.90;13.32;;;;;;;;;;8229947;28;20541;-83
2022/04/24 22:31:53;;;;;;;32.28;13.95;;;;;;;;;;8201347;28;20055;-83
2022/04/24 22:36:04;;;;;;;17.55;8.95;;;;;;;;;;8200596;28;20047;-84
2022/04/24 22:40:10;;;;;;;30.13;14.55;;;;;;;;;;8200606;28;20047;-82
2022/04/24 22:44:13;;;;;;;63.58;10.77;;;;;;;;;;8201028;29;20492;-82
2022/04/24 22:48:16;;;;;;;33.35;11.10;;;;;;;;;;8200631;29;20047;-81
2022/04/24 22:52:18;;;;;;;38.60;15.60;;;;;;;;;;8202016;28;20051;-83
2022/04/24 22:56:22;;;;;;;57.80;16.35;;;;;;;;;;8232219;28;20114;-82
2022/04/24 23:00:27;;;;;;;35.20;13.00;;;;;;;;;;8232040;28;20051;-84
2022/04/24 23:04:29;;;;;;;125.78;11.88;;;;;;;;;;8232406;28;20069;-84
2022/04/24 23:08:32;;;;;;;44.45;10.40;;;;;;;;;;8232526;28;20403;-84
2022/04/24 23:12:37;;;;;;;79.45;10.43;;;;;;;;;;8299283;28;204772;-83
2022/04/24 23:16:40;;;;;;;42.90;8.77;;;;;;;;;;8297759;28;20041;-83
2022/04/24 23:20:43;;;;;;;106.90;10.10;;;;;;;;;;8297699;28;20042;-82
2022/04/24 23:24:46;;;;;;;127.15;9.88;;;;;;;;;;8298044;28;20068;-83
2022/04/24 23:28:50;;;;;;;107.20;9.50;;;;;;;;;;8297557;28;20050;-83
2022/04/24 23:32:52;;;;;;;44.47;8.02;;;;;;;;;;8297424;28;20057;-83
2022/04/24 23:36:55;;;;;;;30.70;9.50;;;;;;;;;;8297405;28;20058;-84
2022/04/24 23:40:57;;;;;;;25.05;10.68;;;;;;;;;;8297304;28;20042;-83
2022/04/24 23:45:01;;;;;;;24.38;10.68;;;;;;;;;;8298261;28;20512;-83
2022/04/24 23:49:05;;;;;;;30.40;11.77;;;;;;;;;;8304097;28;20498;-84
2022/04/24 23:53:07;;;;;;;31.25;11.85;;;;;;;;;;8303322;28;20057;-82
2022/04/24 23:57:10;;;;;;;32.45;13.18;;;;;;;;;;8303252;28;20060;-83
